Time,TemperatureF,DewpointF,PressureIn,WindDirection,WindDirectionDegrees,WindSpeedMPH,WindSpeedGustMPH,Humidity,HourlyPrecipIn,Conditions,Clouds,dailyrainin,SoftwareType,DateUTC
2013-03-20 00:00:00,39.9,29.1,29.79,SSW,203,1.0,8.0,65,0.00,,,1.04,meteohub,2013-03-20 04:00:00,
2013-03-20 00:02:00,39.9,29.5,29.79,South,173,7.0,8.0,66,0.00,,,1.04,meteohub,2013-03-20 04:02:00,
2013-03-20 00:03:00,39.9,29.1,29.79,SW,235,2.0,8.0,65,0.00,,,1.04,meteohub,2013-03-20 04:03:00,
2013-03-20 00:08:00,39.7,29.3,29.79,SW,215,0.0,8.0,66,0.00,,,0.00,meteohub,2013-03-20 04:08:00,
2013-03-20 00:14:00,39.6,29.1,29.79,SW,235,1.0,7.0,66,0.00,,,0.00,meteohub,2013-03-20 04:14:00,
2013-03-20 00:19:00,39.4,29.3,29.79,SW,218,1.0,7.0,67,0.00,,,0.00,meteohub,2013-03-20 04:19:00,
2013-03-20 00:24:00,39.2,29.1,29.79,SW,219,2.0,7.0,67,0.00,,,0.00,meteohub,2013-03-20 04:24:00,
2013-03-20 00:29:00,39.0,28.9,29.79,SW,224,3.0,7.0,67,0.00,,,0.00,meteohub,2013-03-20 04:29:00,
2013-03-20 00:34:00,38.8,28.8,29.79,SSW,211,2.0,5.0,67,0.00,,,0.00,meteohub,2013-03-20 04:34:00,
2013-03-20 00:39:00,38.8,28.8,29.80,NW,309,2.0,5.0,67,0.00,,,0.00,meteohub,2013-03-20 04:39:00,
2013-03-20 00:45:00,38.7,28.2,29.79,West,281,2.0,5.0,66,0.00,,,0.00,meteohub,2013-03-20 04:45:00,
2013-03-20 00:50:00,38.5,27.7,29.80,NE,43,7.0,7.0,65,0.00,,,0.00,meteohub,2013-03-20 04:50:00,
2013-03-20 00:55:00,38.5,27.7,29.80,SW,233,4.0,6.0,65,0.00,,,0.00,meteohub,2013-03-20 04:55:00,
2013-03-20 01:01:00,38.5,27.7,29.80,NNW,337,5.0,6.0,65,0.00,,,0.00,meteohub,2013-03-20 05:01:00,
2013-03-20 01:07:00,38.3,27.9,29.80,SW,228,2.0,6.0,66,0.00,,,0.00,meteohub,2013-03-20 05:07:00,
2013-03-20 01:12:00,38.1,27.9,29.81,SW,222,0.0,7.0,66,0.00,,,0.00,meteohub,2013-03-20 05:12:00,
2013-03-20 01:17:00,38.1,27.9,29.81,South,170,0.0,7.0,66,0.00,,,0.00,meteohub,2013-03-20 05:17:00,
2013-03-20 01:22:00,38.1,28.2,29.81,SW,219,2.0,7.0,67,0.00,,,0.00,meteohub,2013-03-20 05:22:00,
2013-03-20 01:27:00,38.1,27.3,29.81,SE,130,2.0,7.0,65,0.00,,,0.00,meteohub,2013-03-20 05:27:00,
2013-03-20 01:32:00,38.1,24.3,29.81,WSW,252,3.0,11.0,57,0.00,,,0.00,meteohub,2013-03-20 05:32:00,
2013-03-20 01:37:00,38.1,25.9,29.81,NNE,13,3.0,11.0,61,0.00,,,0.00,meteohub,2013-03-20 05:37:00,
2013-03-20 01:43:00,37.9,25.0,29.81,SSW,204,0.0,11.0,59,0.00,,,0.00,meteohub,2013-03-20 05:43:00,
2013-03-20 01:48:00,37.8,22.1,29.81,WNW,293,2.0,8.0,53,0.00,,,0.00,meteohub,2013-03-20 05:48:00,
2013-03-20 01:53:00,37.6,21.0,29.82,NW,316,6.0,8.0,51,0.00,,,0.00,meteohub,2013-03-20 05:53:00,
2013-03-20 01:59:00,37.6,20.1,29.82,NE,43,5.0,8.0,49,0.00,,,0.00,meteohub,2013-03-20 05:59:00,
2013-03-20 02:04:00,37.4,20.5,29.82,SW,236,2.0,10.0,50,0.00,,,0.00,meteohub,2013-03-20 06:04:00,
2013-03-20 02:09:00,37.2,20.3,29.82,West,278,5.0,10.0,50,0.00,,,0.00,meteohub,2013-03-20 06:09:00,
2013-03-20 02:14:00,37.2,20.3,29.83,SW,232,1.0,7.0,50,0.00,,,0.00,meteohub,2013-03-20 06:14:00,
2013-03-20 02:20:00,37.0,19.6,29.83,SSW,212,0.0,7.0,49,0.00,,,0.00,meteohub,2013-03-20 06:20:00,
2013-03-20 02:25:00,36.9,19.9,29.83,West,266,2.0,7.0,50,0.00,,,0.00,meteohub,2013-03-20 06:25:00,
2013-03-20 02:30:00,36.9,19.9,29.83,WNW,298,3.0,8.0,50,0.00,,,0.00,meteohub,2013-03-20 06:30:00,
2013-03-20 02:35:00,36.9,20.5,29.83,SW,217,1.0,8.0,51,0.00,,,0.00,meteohub,2013-03-20 06:35:00,
2013-03-20 02:40:00,36.9,20.5,29.83,SW,221,2.0,8.0,51,0.00,,,0.00,meteohub,2013-03-20 06:40:00,
2013-03-20 02:46:00,36.9,20.5,29.83,South,188,2.0,8.0,51,0.00,,,0.00,meteohub,2013-03-20 06:46:00,
2013-03-20 02:51:00,36.9,20.5,29.84,ENE,60,3.0,6.0,51,0.00,,,0.00,meteohub,2013-03-20 06:51:00,
2013-03-20 02:57:00,36.7,20.3,29.84,South,176,4.0,6.0,51,0.00,,,0.00,meteohub,2013-03-20 06:57:00,
2013-03-20 03:02:00,36.5,20.1,29.84,WSW,248,2.0,8.0,51,0.00,,,0.00,meteohub,2013-03-20 07:02:00,
2013-03-20 03:07:00,36.5,20.5,29.84,SSW,204,1.0,8.0,52,0.00,,,0.00,meteohub,2013-03-20 07:07:00,
2013-03-20 03:12:00,36.3,20.8,29.84,East,95,4.0,8.0,53,0.00,,,0.00,meteohub,2013-03-20 07:12:00,
2013-03-20 03:17:00,36.1,20.7,29.84,WNW,285,3.0,8.0,53,0.00,,,0.00,meteohub,2013-03-20 07:17:00,
2013-03-20 03:22:00,36.0,20.5,29.84,West,266,3.0,10.0,53,0.00,,,0.00,meteohub,2013-03-20 07:22:00,
2013-03-20 03:27:00,35.8,20.8,29.85,SSW,200,2.0,10.0,54,0.00,,,0.00,meteohub,2013-03-20 07:27:00,
2013-03-20 03:32:00,35.8,20.8,29.85,ENE,70,5.0,10.0,54,0.00,,,0.00,meteohub,2013-03-20 07:32:00,
2013-03-20 03:37:00,35.6,21.0,29.85,ESE,110,3.0,10.0,55,0.00,,,0.00,meteohub,2013-03-20 07:37:00,
2013-03-20 03:42:00,35.4,21.7,29.85,East,90,4.0,11.0,57,0.00,,,0.00,meteohub,2013-03-20 07:42:00,
2013-03-20 03:47:00,35.2,21.6,29.85,West,264,2.0,11.0,57,0.00,,,0.00,meteohub,2013-03-20 07:47:00,
2013-03-20 03:52:00,35.1,21.7,29.85,ESE,108,4.0,8.0,58,0.00,,,0.00,meteohub,2013-03-20 07:52:00,
2013-03-20 03:57:00,35.1,21.7,29.85,North,354,5.0,8.0,58,0.00,,,0.00,meteohub,2013-03-20 07:57:00,
2013-03-20 04:02:00,34.9,21.6,29.85,East,94,4.0,8.0,58,0.00,,,0.00,meteohub,2013-03-20 08:02:00,
2013-03-20 04:07:00,34.9,21.9,29.85,SW,222,2.0,8.0,59,0.00,,,0.00,meteohub,2013-03-20 08:07:00,
2013-03-20 04:12:00,34.7,21.9,29.85,ESE,110,7.0,9.0,59,0.00,,,0.00,meteohub,2013-03-20 08:12:00,
2013-03-20 04:17:00,34.7,21.9,29.85,SW,231,2.0,9.0,59,0.00,,,0.00,meteohub,2013-03-20 08:17:00,
2013-03-20 04:22:00,34.5,21.2,29.85,West,280,3.0,9.0,58,0.00,,,0.00,meteohub,2013-03-20 08:22:00,
2013-03-20 04:27:00,34.5,21.2,29.85,NW,307,4.0,9.0,58,0.00,,,0.00,meteohub,2013-03-20 08:27:00,
2013-03-20 04:32:00,34.3,20.7,29.85,ESE,111,6.0,10.0,57,0.00,,,0.00,meteohub,2013-03-20 08:32:00,
2013-03-20 04:37:00,34.3,20.7,29.86,WNW,296,4.0,10.0,57,0.00,,,0.00,meteohub,2013-03-20 08:37:00,
2013-03-20 04:42:00,34.3,20.7,29.86,SW,236,2.0,10.0,57,0.00,,,0.00,meteohub,2013-03-20 08:42:00,
2013-03-20 04:47:00,34.3,21.0,29.86,South,171,2.0,10.0,58,0.00,,,0.00,meteohub,2013-03-20 08:47:00,
2013-03-20 04:52:00,34.2,20.8,29.86,NE,51,3.0,8.0,58,0.00,,,0.00,meteohub,2013-03-20 08:52:00,
2013-03-20 04:57:00,34.2,20.8,29.86,North,354,3.0,8.0,58,0.00,,,0.00,meteohub,2013-03-20 08:57:00,
2013-03-20 05:02:00,34.2,20.8,29.86,NW,304,4.0,8.0,58,0.00,,,0.00,meteohub,2013-03-20 09:02:00,
2013-03-20 05:07:00,34.2,20.8,29.86,NW,321,4.0,8.0,58,0.00,,,0.00,meteohub,2013-03-20 09:07:00,
2013-03-20 05:12:00,34.2,20.8,29.86,SW,236,4.0,8.0,58,0.00,,,0.00,meteohub,2013-03-20 09:12:00,
2013-03-20 05:17:00,34.0,21.2,29.86,South,188,2.0,9.0,59,0.00,,,0.00,meteohub,2013-03-20 09:17:00,
2013-03-20 05:22:00,34.0,21.6,29.86,East,79,5.0,9.0,60,0.00,,,0.00,meteohub,2013-03-20 09:22:00,
2013-03-20 05:27:00,34.0,21.2,29.86,South,186,3.0,9.0,59,0.00,,,0.00,meteohub,2013-03-20 09:27:00,
2013-03-20 05:32:00,33.8,21.4,29.86,South,188,1.0,9.0,60,0.00,,,0.00,meteohub,2013-03-20 09:32:00,
2013-03-20 05:38:00,33.8,21.0,29.86,South,188,0.0,7.0,59,0.00,,,0.00,meteohub,2013-03-20 09:38:00,
2013-03-20 05:43:00,33.6,21.2,29.86,SW,233,1.0,7.0,60,0.00,,,0.00,meteohub,2013-03-20 09:43:00,
2013-03-20 05:48:00,33.6,21.2,29.86,South,177,2.0,7.0,60,0.00,,,0.00,meteohub,2013-03-20 09:48:00,
2013-03-20 05:53:00,33.6,21.2,29.87,SSW,207,1.0,7.0,60,0.00,,,0.00,meteohub,2013-03-20 09:53:00,
2013-03-20 05:58:00,33.6,21.2,29.87,East,94,3.0,8.0,60,0.00,,,0.00,meteohub,2013-03-20 09:58:00,
2013-03-20 06:04:00,33.6,21.2,29.87,WNW,301,5.0,8.0,60,0.00,,,0.00,meteohub,2013-03-20 10:04:00,
2013-03-20 06:09:00,33.6,21.2,29.87,South,188,2.0,8.0,60,0.00,,,0.00,meteohub,2013-03-20 10:09:00,
2013-03-20 06:14:00,33.6,21.2,29.87,WNW,286,3.0,8.0,60,0.00,,,0.00,meteohub,2013-03-20 10:14:00,
2013-03-20 06:19:00,33.6,21.2,29.87,ENE,76,5.0,8.0,60,0.00,,,0.00,meteohub,2013-03-20 10:19:00,
2013-03-20 06:25:00,33.6,21.2,29.87,SSW,198,2.0,10.0,60,0.00,,,0.00,meteohub,2013-03-20 10:25:00,
2013-03-20 06:30:00,33.4,21.0,29.87,West,278,2.0,10.0,60,0.00,,,0.00,meteohub,2013-03-20 10:30:00,
2013-03-20 06:35:00,33.4,21.0,29.88,SSW,207,2.0,10.0,60,0.00,,,0.00,meteohub,2013-03-20 10:35:00,
2013-03-20 06:41:00,33.4,21.0,29.88,WSW,245,1.0,10.0,60,0.00,,,0.00,meteohub,2013-03-20 10:41:00,
2013-03-20 06:46:00,33.4,21.0,29.87,SSW,208,1.0,10.0,60,0.00,,,0.00,meteohub,2013-03-20 10:46:00,
2013-03-20 06:51:00,33.6,21.2,29.87,West,259,3.0,10.0,60,0.00,,,0.00,meteohub,2013-03-20 10:51:00,
2013-03-20 06:57:00,33.4,21.0,29.88,South,184,1.0,7.0,60,0.00,,,0.00,meteohub,2013-03-20 10:57:00,
2013-03-20 07:02:00,33.4,21.0,29.88,SSE,167,2.0,7.0,60,0.00,,,0.00,meteohub,2013-03-20 11:02:00,
2013-03-20 07:07:00,33.4,21.0,29.88,NE,56,5.0,7.0,60,0.00,,,0.00,meteohub,2013-03-20 11:07:00,
2013-03-20 07:12:00,33.4,21.0,29.87,SW,225,3.0,7.0,60,0.00,,,0.00,meteohub,2013-03-20 11:12:00,
2013-03-20 07:17:00,33.6,21.2,29.87,South,184,1.0,7.0,60,0.00,,,0.00,meteohub,2013-03-20 11:17:00,
2013-03-20 07:22:00,33.6,21.2,29.87,WSW,248,3.0,7.0,60,0.00,,,0.00,meteohub,2013-03-20 11:22:00,
2013-03-20 07:27:00,33.8,21.0,29.87,SW,228,2.0,6.0,59,0.00,,,0.00,meteohub,2013-03-20 11:27:00,
2013-03-20 07:33:00,34.0,21.2,29.87,South,179,2.0,6.0,59,0.00,,,0.00,meteohub,2013-03-20 11:33:00,
2013-03-20 07:38:00,34.0,21.2,29.88,WNW,301,6.0,6.0,59,0.00,,,0.00,meteohub,2013-03-20 11:38:00,
2013-03-20 07:43:00,34.2,21.4,29.87,WNW,290,2.0,6.0,59,0.00,,,0.00,meteohub,2013-03-20 11:43:00,
2013-03-20 07:48:00,34.2,21.4,29.87,NNE,21,3.0,6.0,59,0.00,,,0.00,meteohub,2013-03-20 11:48:00,
2013-03-20 07:54:00,34.3,21.0,29.87,North,357,5.0,6.0,58,0.00,,,0.00,meteohub,2013-03-20 11:54:00,
2013-03-20 07:59:00,34.5,20.8,29.87,ENE,73,5.0,6.0,57,0.00,,,0.00,meteohub,2013-03-20 11:59:00,
2013-03-20 08:05:00,34.9,20.8,29.88,West,267,3.0,6.0,56,0.00,,,0.00,meteohub,2013-03-20 12:05:00,
2013-03-20 08:10:00,35.1,21.0,29.88,North,1,8.0,8.0,56,0.00,,,0.00,meteohub,2013-03-20 12:10:00,
2013-03-20 08:15:00,35.4,20.8,29.88,West,274,9.0,9.0,55,0.00,,,0.00,meteohub,2013-03-20 12:15:00,
2013-03-20 08:20:00,35.8,21.2,29.87,NW,325,5.0,9.0,55,0.00,,,0.00,meteohub,2013-03-20 12:20:00,
2013-03-20 08:26:00,35.8,20.8,29.87,SSW,198,4.0,9.0,54,0.00,,,0.00,meteohub,2013-03-20 12:26:00,
2013-03-20 08:32:00,35.8,20.3,29.88,North,349,10.0,10.0,53,0.00,,,0.00,meteohub,2013-03-20 12:32:00,
2013-03-20 08:37:00,35.8,20.3,29.88,West,271,4.0,9.0,53,0.00,,,0.00,meteohub,2013-03-20 12:37:00,
2013-03-20 08:42:00,36.0,20.5,29.87,SSE,167,4.0,13.0,53,0.00,,,0.00,meteohub,2013-03-20 12:42:00,
2013-03-20 08:47:00,36.0,20.5,29.88,WNW,288,5.0,13.0,53,0.00,,,0.00,meteohub,2013-03-20 12:47:00,
2013-03-20 08:52:00,36.1,20.7,29.87,ESE,102,4.0,13.0,53,0.00,,,0.00,meteohub,2013-03-20 12:52:00,
2013-03-20 08:57:00,36.1,20.7,29.87,NE,44,7.0,13.0,53,0.00,,,0.00,meteohub,2013-03-20 12:57:00,
2013-03-20 09:02:00,36.3,20.3,29.86,ENE,64,5.0,12.0,52,0.00,,,0.00,meteohub,2013-03-20 13:02:00,
2013-03-20 09:07:00,36.7,21.2,29.86,West,262,6.0,12.0,53,0.00,,,0.00,meteohub,2013-03-20 13:07:00,
2013-03-20 09:12:00,36.9,20.8,29.87,East,86,9.0,12.0,52,0.00,,,0.00,meteohub,2013-03-20 13:12:00,
2013-03-20 09:17:00,37.0,20.7,29.86,NE,42,5.0,12.0,51,0.00,,,0.00,meteohub,2013-03-20 13:17:00,
2013-03-20 09:22:00,37.0,20.7,29.86,West,278,3.0,13.0,51,0.00,,,0.00,meteohub,2013-03-20 13:22:00,
2013-03-20 09:27:00,37.4,20.8,29.86,SSW,193,2.0,13.0,51,0.00,,,0.00,meteohub,2013-03-20 13:27:00,
2013-03-20 09:32:00,37.6,20.7,29.86,SSW,207,2.0,13.0,50,0.00,,,0.00,meteohub,2013-03-20 13:32:00,
2013-03-20 09:37:00,37.8,20.3,29.86,NNE,25,9.0,13.0,49,0.00,,,0.00,meteohub,2013-03-20 13:37:00,
2013-03-20 09:42:00,37.8,20.3,29.86,East,89,4.0,13.0,49,0.00,,,0.00,meteohub,2013-03-20 13:42:00,
2013-03-20 09:47:00,37.9,20.5,29.86,NW,311,7.0,13.0,49,0.00,,,0.00,meteohub,2013-03-20 13:47:00,
2013-03-20 09:52:00,37.8,19.8,29.86,WNW,303,8.0,10.0,48,0.00,,,0.00,meteohub,2013-03-20 13:52:00,
2013-03-20 09:57:00,37.8,20.3,29.86,SW,222,10.0,10.0,49,0.00,,,0.00,meteohub,2013-03-20 13:57:00,
2013-03-20 10:02:00,38.1,20.1,29.86,NNW,333,4.0,10.0,48,0.00,,,0.00,meteohub,2013-03-20 14:02:00,
2013-03-20 10:08:00,38.3,20.3,29.86,WSW,256,4.0,10.0,48,0.00,,,0.00,meteohub,2013-03-20 14:08:00,
2013-03-20 10:13:00,38.5,19.9,29.86,NNW,342,3.0,10.0,47,0.00,,,0.00,meteohub,2013-03-20 14:13:00,
2013-03-20 10:18:00,38.8,20.8,29.86,WNW,300,4.0,13.0,48,0.00,,,0.00,meteohub,2013-03-20 14:18:00,
2013-03-20 10:23:00,39.0,19.9,29.86,NW,321,5.0,13.0,46,0.00,,,0.00,meteohub,2013-03-20 14:23:00,
2013-03-20 10:29:00,39.6,21.0,29.86,NW,322,5.0,13.0,47,0.00,,,0.00,meteohub,2013-03-20 14:29:00,
2013-03-20 10:34:00,39.9,20.8,29.87,NNW,327,3.0,13.0,46,0.00,,,0.00,meteohub,2013-03-20 14:34:00,
2013-03-20 10:40:00,40.3,21.2,29.86,WSW,243,4.0,14.0,46,0.00,,,0.00,meteohub,2013-03-20 14:40:00,
2013-03-20 10:45:00,40.6,21.0,29.87,NW,312,7.0,14.0,45,0.00,,,0.00,meteohub,2013-03-20 14:45:00,
2013-03-20 10:50:00,40.6,21.6,29.87,NNE,28,6.0,14.0,46,0.00,,,0.00,meteohub,2013-03-20 14:50:00,
2013-03-20 10:56:00,41.0,21.7,29.87,WSW,239,3.0,14.0,46,0.00,,,0.00,meteohub,2013-03-20 14:56:00,
2013-03-20 11:02:00,41.4,21.6,29.87,NW,321,4.0,12.0,45,0.00,,,0.00,meteohub,2013-03-20 15:02:00,
2013-03-20 11:07:00,41.7,21.9,29.87,NNW,329,4.0,12.0,45,0.00,,,0.00,meteohub,2013-03-20 15:07:00,
2013-03-20 11:12:00,41.7,21.4,29.87,NNE,29,8.0,12.0,44,0.00,,,0.00,meteohub,2013-03-20 15:12:00,
2013-03-20 11:17:00,41.7,21.4,29.87,NNW,341,5.0,12.0,44,0.00,,,0.00,meteohub,2013-03-20 15:17:00,
2013-03-20 11:22:00,41.5,21.2,29.87,NNW,329,6.0,12.0,44,0.00,,,0.00,meteohub,2013-03-20 15:22:00,
2013-03-20 11:27:00,42.1,21.2,29.87,WNW,293,3.0,12.0,43,0.00,,,0.00,meteohub,2013-03-20 15:27:00,
2013-03-20 11:32:00,42.4,21.6,29.86,WNW,300,5.0,11.0,43,0.00,,,0.00,meteohub,2013-03-20 15:32:00,
2013-03-20 11:37:00,42.1,21.2,29.86,NW,312,6.0,11.0,43,0.00,,,0.00,meteohub,2013-03-20 15:37:00,
2013-03-20 11:42:00,42.1,21.2,29.86,NE,46,2.0,11.0,43,0.00,,,0.00,meteohub,2013-03-20 15:42:00,
2013-03-20 11:48:00,42.8,21.4,29.86,WNW,303,3.0,11.0,42,0.00,,,0.00,meteohub,2013-03-20 15:48:00,
2013-03-20 11:53:00,43.0,20.8,29.86,SSW,208,5.0,9.0,41,0.00,,,0.00,meteohub,2013-03-20 15:53:00,
2013-03-20 11:59:00,43.0,21.4,29.86,WSW,248,7.0,9.0,42,0.00,,,0.00,meteohub,2013-03-20 15:59:00,
2013-03-20 12:04:00,43.2,21.6,29.85,WSW,249,4.0,9.0,42,0.00,,,0.00,meteohub,2013-03-20 16:04:00,
2013-03-20 12:09:00,43.5,21.9,29.85,SE,132,3.0,9.0,42,0.00,,,0.00,meteohub,2013-03-20 16:09:00,
2013-03-20 12:14:00,43.9,21.7,29.85,NW,312,5.0,9.0,41,0.00,,,0.00,meteohub,2013-03-20 16:14:00,
2013-03-20 12:20:00,44.1,21.9,29.84,NE,49,9.0,13.0,41,0.00,,,0.00,meteohub,2013-03-20 16:20:00,
2013-03-20 12:25:00,43.9,21.7,29.84,NNW,347,6.0,13.0,41,0.00,,,0.00,meteohub,2013-03-20 16:25:00,
2013-03-20 12:30:00,44.2,21.4,29.84,NNW,340,3.0,13.0,40,0.00,,,0.00,meteohub,2013-03-20 16:30:00,
2013-03-20 12:36:00,45.0,22.1,29.84,SW,229,1.0,13.0,40,0.00,,,0.00,meteohub,2013-03-20 16:36:00,
2013-03-20 12:41:00,45.0,21.6,29.84,NNW,339,7.0,13.0,39,0.00,,,0.00,meteohub,2013-03-20 16:41:00,
2013-03-20 12:46:00,45.1,21.7,29.84,SW,217,1.0,11.0,39,0.00,,,0.00,meteohub,2013-03-20 16:46:00,
2013-03-20 12:51:00,45.7,22.1,29.84,NNW,327,7.0,11.0,39,0.00,,,0.00,meteohub,2013-03-20 16:51:00,
2013-03-20 12:57:00,45.9,21.0,29.84,East,98,6.0,11.0,37,0.00,,,0.00,meteohub,2013-03-20 16:57:00,
2013-03-20 13:02:00,45.7,21.6,29.84,SSW,213,3.0,11.0,38,0.00,,,0.00,meteohub,2013-03-20 17:02:00,
2013-03-20 13:07:00,45.9,21.7,29.83,SSE,155,3.0,11.0,38,0.00,,,0.00,meteohub,2013-03-20 17:07:00,
2013-03-20 13:12:00,46.2,21.4,29.83,NE,56,6.0,10.0,37,0.00,,,0.00,meteohub,2013-03-20 17:12:00,
2013-03-20 13:17:00,46.0,20.5,29.83,SE,131,2.0,10.0,36,0.00,,,0.00,meteohub,2013-03-20 17:17:00,
2013-03-20 13:22:00,46.0,21.2,29.83,WNW,290,5.0,11.0,37,0.00,,,0.00,meteohub,2013-03-20 17:22:00,
2013-03-20 13:27:00,46.6,21.7,29.83,NW,315,8.0,11.0,37,0.00,,,0.00,meteohub,2013-03-20 17:27:00,
2013-03-20 13:32:00,46.0,20.5,29.82,North,355,3.0,11.0,36,0.00,,,0.00,meteohub,2013-03-20 17:32:00,
2013-03-20 13:37:00,46.2,21.4,29.82,ESE,121,3.0,11.0,37,0.00,,,0.00,meteohub,2013-03-20 17:37:00,
2013-03-20 13:43:00,46.9,22.1,29.82,NNW,334,3.0,11.0,37,0.00,,,0.00,meteohub,2013-03-20 17:43:00,
2013-03-20 13:48:00,47.1,20.8,29.82,WNW,295,3.0,11.0,35,0.00,,,0.00,meteohub,2013-03-20 17:48:00,
2013-03-20 13:53:00,47.3,21.7,29.81,East,84,6.0,9.0,36,0.00,,,0.00,meteohub,2013-03-20 17:53:00,
2013-03-20 13:58:00,47.5,21.9,29.81,SE,128,3.0,9.0,36,0.00,,,0.00,meteohub,2013-03-20 17:58:00,
2013-03-20 14:03:00,47.7,22.1,29.81,SSW,197,1.0,9.0,36,0.00,,,0.00,meteohub,2013-03-20 18:03:00,
2013-03-20 14:08:00,47.8,21.6,29.81,ENE,65,7.0,9.0,35,0.00,,,0.00,meteohub,2013-03-20 18:08:00,
2013-03-20 14:13:00,47.7,21.4,29.80,SSE,153,2.0,9.0,35,0.00,,,0.00,meteohub,2013-03-20 18:13:00,
2013-03-20 14:19:00,47.5,21.2,29.80,ENE,78,8.0,13.0,35,0.00,,,0.00,meteohub,2013-03-20 18:19:00,
2013-03-20 14:24:00,47.7,21.4,29.79,SSE,167,4.0,13.0,35,0.00,,,0.00,meteohub,2013-03-20 18:24:00,
2013-03-20 14:29:00,48.0,21.0,29.79,ENE,58,3.0,10.0,34,0.00,,,0.00,meteohub,2013-03-20 18:29:00,
2013-03-20 14:34:00,48.0,21.0,29.79,NNW,334,4.0,10.0,34,0.00,,,0.00,meteohub,2013-03-20 18:34:00,
2013-03-20 14:40:00,48.0,21.0,29.79,WSW,242,6.0,12.0,34,0.00,,,0.00,meteohub,2013-03-20 18:40:00,
2013-03-20 14:45:00,47.8,20.8,29.78,West,278,5.0,12.0,34,0.00,,,0.00,meteohub,2013-03-20 18:45:00,
2013-03-20 14:50:00,47.7,19.9,29.78,NW,322,2.0,12.0,33,0.00,,,0.00,meteohub,2013-03-20 18:50:00,
2013-03-20 14:55:00,47.7,21.4,29.78,NNW,330,6.0,10.0,35,0.00,,,0.00,meteohub,2013-03-20 18:55:00,
2013-03-20 15:00:00,48.0,21.0,29.78,NNW,348,7.0,10.0,34,0.00,,,0.00,meteohub,2013-03-20 19:00:00,
2013-03-20 15:05:00,48.0,20.3,29.78,East,81,5.0,10.0,33,0.00,,,0.00,meteohub,2013-03-20 19:05:00,
2013-03-20 15:11:00,48.4,20.7,29.78,West,276,5.0,12.0,33,0.00,,,0.00,meteohub,2013-03-20 19:11:00,
2013-03-20 15:16:00,48.4,20.7,29.78,ESE,109,3.0,12.0,33,0.00,,,0.00,meteohub,2013-03-20 19:16:00,
2013-03-20 15:22:00,48.6,20.8,29.78,WSW,257,2.0,11.0,33,0.00,,,0.00,meteohub,2013-03-20 19:22:00,
2013-03-20 15:27:00,48.6,20.8,29.78,ENE,72,6.0,11.0,33,0.00,,,0.00,meteohub,2013-03-20 19:27:00,
2013-03-20 15:32:00,48.2,20.5,29.78,WSW,245,2.0,13.0,33,0.00,,,0.00,meteohub,2013-03-20 19:32:00,
2013-03-20 15:37:00,47.8,20.1,29.78,NW,306,7.0,13.0,33,0.00,,,0.00,meteohub,2013-03-20 19:37:00,
2013-03-20 15:42:00,47.1,19.4,29.78,NNW,341,11.0,13.0,33,0.00,,,0.00,meteohub,2013-03-20 19:42:00,
2013-03-20 15:47:00,46.6,19.8,29.78,East,83,6.0,13.0,34,0.00,,,0.00,meteohub,2013-03-20 19:47:00,
2013-03-20 15:52:00,46.4,20.3,29.78,NW,323,3.0,15.0,35,0.00,,,0.00,meteohub,2013-03-20 19:52:00,
2013-03-20 15:57:00,46.8,20.5,29.78,WSW,246,2.0,15.0,35,0.00,,,0.00,meteohub,2013-03-20 19:57:00,
2013-03-20 16:02:00,47.3,20.3,29.78,ENE,63,7.0,13.0,34,0.00,,,0.00,meteohub,2013-03-20 20:02:00,
2013-03-20 16:07:00,47.7,19.2,29.78,NW,316,8.0,13.0,32,0.00,,,0.00,meteohub,2013-03-20 20:07:00,
2013-03-20 16:12:00,48.0,20.3,29.77,ESE,107,4.0,13.0,33,0.00,,,0.00,meteohub,2013-03-20 20:12:00,
2013-03-20 16:17:00,47.7,19.2,29.77,SW,215,3.0,13.0,32,0.00,,,0.00,meteohub,2013-03-20 20:17:00,
2013-03-20 16:22:00,47.7,19.9,29.77,SSE,150,3.0,16.0,33,0.00,,,0.00,meteohub,2013-03-20 20:22:00,
2013-03-20 16:27:00,47.5,19.8,29.78,North,11,7.0,16.0,33,0.00,,,0.00,meteohub,2013-03-20 20:27:00,
2013-03-20 16:32:00,47.1,20.1,29.78,WNW,301,4.0,16.0,34,0.00,,,0.00,meteohub,2013-03-20 20:32:00,
2013-03-20 16:37:00,47.5,21.2,29.77,West,273,4.0,16.0,35,0.00,,,0.00,meteohub,2013-03-20 20:37:00,
2013-03-20 16:42:00,47.3,20.3,29.78,East,79,5.0,13.0,34,0.00,,,0.00,meteohub,2013-03-20 20:42:00,
2013-03-20 16:48:00,46.8,19.9,29.77,WSW,255,3.0,13.0,34,0.00,,,0.00,meteohub,2013-03-20 20:48:00,
2013-03-20 16:53:00,46.6,20.3,29.77,SE,141,3.0,10.0,35,0.00,,,0.00,meteohub,2013-03-20 20:53:00,
2013-03-20 16:58:00,46.4,19.6,29.77,NW,305,6.0,10.0,34,0.00,,,0.00,meteohub,2013-03-20 20:58:00,
2013-03-20 17:03:00,46.0,19.9,29.77,West,271,2.0,10.0,35,0.00,,,0.00,meteohub,2013-03-20 21:03:00,
2013-03-20 17:08:00,46.0,19.9,29.77,ESE,105,4.0,10.0,35,0.00,,,0.00,meteohub,2013-03-20 21:08:00,
2013-03-20 17:14:00,46.2,20.1,29.77,WNW,286,4.0,11.0,35,0.00,,,0.00,meteohub,2013-03-20 21:14:00,
2013-03-20 17:19:00,46.6,19.8,29.77,SW,236,3.0,11.0,34,0.00,,,0.00,meteohub,2013-03-20 21:19:00,
2013-03-20 17:24:00,46.2,20.1,29.78,WNW,295,6.0,10.0,35,0.00,,,0.00,meteohub,2013-03-20 21:24:00,
2013-03-20 17:30:00,46.0,19.9,29.77,NE,40,5.0,10.0,35,0.00,,,0.00,meteohub,2013-03-20 21:30:00,
2013-03-20 17:35:00,46.0,19.9,29.77,NW,306,5.0,10.0,35,0.00,,,0.00,meteohub,2013-03-20 21:35:00,
2013-03-20 17:40:00,46.0,19.2,29.77,NE,56,3.0,10.0,34,0.00,,,0.00,meteohub,2013-03-20 21:40:00,
2013-03-20 17:45:00,45.7,19.6,29.77,NW,323,2.0,10.0,35,0.00,,,0.00,meteohub,2013-03-20 21:45:00,
2013-03-20 17:50:00,45.7,20.3,29.77,West,263,2.0,10.0,36,0.00,,,0.00,meteohub,2013-03-20 21:50:00,
2013-03-20 17:55:00,45.5,20.1,29.77,South,188,1.0,10.0,36,0.00,,,0.00,meteohub,2013-03-20 21:55:00,
2013-03-20 18:01:00,45.5,19.4,29.77,WNW,301,3.0,7.0,35,0.00,,,0.00,meteohub,2013-03-20 22:01:00,
2013-03-20 18:06:00,45.5,20.1,29.77,ENE,67,4.0,7.0,36,0.00,,,0.00,meteohub,2013-03-20 22:06:00,
2013-03-20 18:12:00,45.5,20.1,29.78,SW,236,2.0,7.0,36,0.00,,,0.00,meteohub,2013-03-20 22:12:00,
2013-03-20 18:17:00,45.5,19.4,29.78,SE,137,4.0,7.0,35,0.00,,,0.00,meteohub,2013-03-20 22:17:00,
2013-03-20 18:22:00,45.3,19.9,29.78,South,184,3.0,9.0,36,0.00,,,0.00,meteohub,2013-03-20 22:22:00,
2013-03-20 18:27:00,45.1,19.8,29.78,NNE,26,4.0,9.0,36,0.00,,,0.00,meteohub,2013-03-20 22:27:00,
2013-03-20 18:32:00,45.1,19.8,29.78,SSE,163,1.0,9.0,36,0.00,,,0.00,meteohub,2013-03-20 22:32:00,
2013-03-20 18:37:00,45.1,19.8,29.78,SSW,201,1.0,9.0,36,0.00,,,0.00,meteohub,2013-03-20 22:37:00,
2013-03-20 18:43:00,45.1,20.5,29.78,West,273,2.0,5.0,37,0.00,,,0.00,meteohub,2013-03-20 22:43:00,
2013-03-20 18:48:00,45.1,20.5,29.78,West,263,2.0,5.0,37,0.00,,,0.00,meteohub,2013-03-20 22:48:00,
2013-03-20 18:53:00,45.1,20.5,29.78,SW,222,1.0,5.0,37,0.00,,,0.00,meteohub,2013-03-20 22:53:00,
2013-03-20 18:58:00,45.1,20.5,29.78,WSW,256,2.0,5.0,37,0.00,,,0.00,meteohub,2013-03-20 22:58:00,
2013-03-20 19:03:00,45.0,20.3,29.78,SSW,210,3.0,8.0,37,0.00,,,0.00,meteohub,2013-03-20 23:03:00,
2013-03-20 19:08:00,45.0,20.3,29.78,SW,228,1.0,8.0,37,0.00,,,0.00,meteohub,2013-03-20 23:08:00,
2013-03-20 19:13:00,44.8,19.4,29.78,NW,310,4.0,8.0,36,0.00,,,0.00,meteohub,2013-03-20 23:13:00,
2013-03-20 19:19:00,44.6,19.2,29.78,South,172,4.0,7.0,36,0.00,,,0.00,meteohub,2013-03-20 23:19:00,
2013-03-20 19:24:00,44.4,19.0,29.78,South,181,4.0,7.0,36,0.00,,,0.00,meteohub,2013-03-20 23:24:00,
2013-03-20 19:29:00,44.4,19.0,29.78,South,170,2.0,7.0,36,0.00,,,0.00,meteohub,2013-03-20 23:29:00,
2013-03-20 19:34:00,44.2,19.6,29.78,South,174,2.0,10.0,37,0.00,,,0.00,meteohub,2013-03-20 23:34:00,
2013-03-20 19:39:00,44.2,19.6,29.77,SSW,201,2.0,10.0,37,0.00,,,0.00,meteohub,2013-03-20 23:39:00,
2013-03-20 19:45:00,44.2,19.6,29.78,SSW,212,2.0,10.0,37,0.00,,,0.00,meteohub,2013-03-20 23:45:00,
2013-03-20 19:50:00,44.2,19.6,29.78,SSW,209,0.0,7.0,37,0.00,,,0.00,meteohub,2013-03-20 23:50:00,
2013-03-20 19:56:00,44.1,19.4,29.78,SW,217,1.0,7.0,37,0.00,,,0.00,meteohub,2013-03-20 23:56:00,
2013-03-20 20:01:00,44.1,19.4,29.78,SW,217,1.0,4.0,37,0.00,,,0.00,meteohub,2013-03-21 00:01:00,
2013-03-20 20:06:00,43.9,19.2,29.78,SW,225,0.0,4.0,37,0.00,,,0.00,meteohub,2013-03-21 00:06:00,
2013-03-20 20:12:00,43.9,19.2,29.78,South,184,0.0,4.0,37,0.00,,,0.00,meteohub,2013-03-21 00:12:00,
2013-03-20 20:17:00,43.9,19.2,29.78,South,176,1.0,4.0,37,0.00,,,0.00,meteohub,2013-03-21 00:17:00,
2013-03-20 20:22:00,43.9,19.2,29.78,SSW,212,1.0,5.0,37,0.00,,,0.00,meteohub,2013-03-21 00:22:00,
2013-03-20 20:27:00,43.7,19.8,29.78,SW,215,1.0,5.0,38,0.00,,,0.00,meteohub,2013-03-21 00:27:00,
2013-03-20 20:32:00,43.5,19.6,29.78,WSW,245,2.0,4.0,38,0.00,,,0.00,meteohub,2013-03-21 00:32:00,
2013-03-20 20:37:00,43.5,19.6,29.78,SW,228,1.0,4.0,38,0.00,,,0.00,meteohub,2013-03-21 00:37:00,
2013-03-20 20:43:00,43.5,19.6,29.78,South,169,0.0,4.0,38,0.00,,,0.00,meteohub,2013-03-21 00:43:00,
2013-03-20 20:48:00,43.5,19.6,29.78,SW,224,1.0,4.0,38,0.00,,,0.00,meteohub,2013-03-21 00:48:00,
2013-03-20 20:53:00,43.5,19.6,29.79,SSW,205,1.0,3.0,38,0.00,,,0.00,meteohub,2013-03-21 00:53:00,
2013-03-20 20:58:00,43.5,19.6,29.79,SSW,212,0.0,3.0,38,0.00,,,0.00,meteohub,2013-03-21 00:58:00,
2013-03-20 21:03:00,43.5,19.0,29.79,NNE,26,3.0,5.0,37,0.00,,,0.00,meteohub,2013-03-21 01:03:00,
2013-03-20 21:09:00,43.9,19.9,29.79,SW,235,1.0,5.0,38,0.00,,,0.00,meteohub,2013-03-21 01:09:00,
2013-03-20 21:14:00,43.9,19.9,29.79,SW,231,1.0,5.0,38,0.00,,,0.00,meteohub,2013-03-21 01:14:00,
2013-03-20 21:19:00,43.7,19.8,29.80,SSW,211,1.0,5.0,38,0.00,,,0.00,meteohub,2013-03-21 01:19:00,
2013-03-20 21:24:00,43.5,20.1,29.79,SSW,212,0.0,5.0,39,0.00,,,0.00,meteohub,2013-03-21 01:24:00,
2013-03-20 21:30:00,43.3,20.1,29.80,SSW,204,0.0,5.0,39,0.00,,,0.00,meteohub,2013-03-21 01:30:00,
2013-03-20 21:35:00,43.2,20.5,29.80,SSW,204,0.0,2.0,40,0.00,,,0.00,meteohub,2013-03-21 01:35:00,
2013-03-20 21:40:00,43.0,20.3,29.80,SSW,204,0.0,2.0,40,0.00,,,0.00,meteohub,2013-03-21 01:40:00,
2013-03-20 21:46:00,42.4,20.5,29.80,SSW,204,0.0,2.0,41,0.00,,,0.00,meteohub,2013-03-21 01:46:00,
2013-03-20 21:52:00,42.3,20.8,29.80,SSW,204,0.0,0.0,42,0.00,,,0.00,meteohub,2013-03-21 01:52:00,
2013-03-20 21:57:00,42.1,21.2,29.80,SSW,204,0.0,0.0,43,0.00,,,0.00,meteohub,2013-03-21 01:57:00,
2013-03-20 22:02:00,42.1,21.2,29.80,SSW,204,0.0,0.0,43,0.00,,,0.00,meteohub,2013-03-21 02:02:00,
2013-03-20 22:07:00,41.9,21.6,29.80,SSW,204,0.0,0.0,44,0.00,,,0.00,meteohub,2013-03-21 02:07:00,
2013-03-20 22:12:00,41.7,21.4,29.80,SSW,204,0.0,0.0,44,0.00,,,0.00,meteohub,2013-03-21 02:12:00,
2013-03-20 22:17:00,41.9,21.6,29.80,SSW,204,0.0,0.0,44,0.00,,,0.00,meteohub,2013-03-21 02:17:00,
2013-03-20 22:22:00,42.1,21.2,29.80,SSW,204,0.0,0.0,43,0.00,,,0.00,meteohub,2013-03-21 02:22:00,
2013-03-20 22:27:00,42.1,21.7,29.80,SSW,204,0.0,0.0,44,0.00,,,0.00,meteohub,2013-03-21 02:27:00,
2013-03-20 22:33:00,42.1,21.7,29.81,SSW,204,0.0,0.0,44,0.00,,,0.00,meteohub,2013-03-21 02:33:00,
2013-03-20 22:38:00,42.1,22.8,29.81,SSW,204,0.0,0.0,46,0.00,,,0.00,meteohub,2013-03-21 02:38:00,
2013-03-20 22:44:00,42.1,21.7,29.81,SSW,212,0.0,0.0,44,0.00,,,0.00,meteohub,2013-03-21 02:44:00,
2013-03-20 22:49:00,42.3,21.4,29.81,SSW,197,0.0,2.0,43,0.00,,,0.00,meteohub,2013-03-21 02:49:00,
2013-03-20 22:54:00,42.3,21.9,29.81,SSW,200,0.0,2.0,44,0.00,,,0.00,meteohub,2013-03-21 02:54:00,
2013-03-20 22:59:00,42.4,22.1,29.81,SSW,203,0.0,2.0,44,0.00,,,0.00,meteohub,2013-03-21 02:59:00,
2013-03-20 23:04:00,42.6,22.3,29.81,SW,225,0.0,2.0,44,0.00,,,0.00,meteohub,2013-03-21 03:04:00,
2013-03-20 23:10:00,42.6,21.2,29.81,SSW,212,0.0,2.0,42,0.00,,,0.00,meteohub,2013-03-21 03:10:00,
2013-03-20 23:15:00,42.4,21.0,29.80,SW,221,1.0,2.0,42,0.00,,,0.00,meteohub,2013-03-21 03:15:00,
2013-03-20 23:20:00,42.4,21.0,29.80,SW,221,1.0,3.0,42,0.00,,,0.00,meteohub,2013-03-21 03:20:00,
2013-03-20 23:25:00,42.4,21.0,29.80,SW,224,0.0,3.0,42,0.00,,,0.00,meteohub,2013-03-21 03:25:00,
2013-03-20 23:30:00,42.4,21.0,29.80,SW,226,3.0,3.0,42,0.00,,,0.00,meteohub,2013-03-21 03:30:00,
2013-03-20 23:35:00,42.4,22.1,29.80,SW,215,0.0,2.0,44,0.00,,,0.00,meteohub,2013-03-21 03:35:00,
2013-03-20 23:40:00,42.3,22.5,29.80,SW,228,1.0,2.0,45,0.00,,,0.00,meteohub,2013-03-21 03:40:00,
2013-03-20 23:46:00,42.3,23.0,29.81,SW,235,2.0,2.0,46,0.00,,,0.00,meteohub,2013-03-21 03:46:00,
2013-03-20 23:51:00,42.1,23.4,29.81,SW,221,0.0,4.0,47,0.00,,,0.00,meteohub,2013-03-21 03:51:00,
2013-03-20 23:57:00,42.1,23.4,29.81,SW,224,1.0,4.0,47,0.00,,,0.00,meteohub,2013-03-21 03:57:00,